Time;durP1;ratioP1;P1;durP2;ratioP2;P2;SDS_P1;SDS_P2;PMS_P1;PMS_P2;Temp;Humidity;BMP_temperature;BMP_pressure;BME280_temperature;BME280_humidity;BME280_pressure;Samples;Min_cycle;Max_cycle;Signal;HPM_P1;HPM_P2
2023/08/13 00:00:51;;;;;;;0.95;0.47;;;;;;;;;;10384349;28;20042;-91
2023/08/13 00:05:55;;;;;;;2.37;0.30;;;;;;;;;;10378356;28;20034;-91
2023/08/13 00:10:58;;;;;;;0.88;0.57;;;;;;;;;;10381166;28;20292;-91
2023/08/13 00:16:03;;;;;;;0.60;0.55;;;;;;;;;;10379237;28;20092;-93
2023/08/13 00:21:07;;;;;;;0.70;0.60;;;;;;;;;;10383853;28;20077;-91
2023/08/13 00:26:11;;;;;;;0.52;0.50;;;;;;;;;;10394837;28;20042;-92
2023/08/13 00:31:16;;;;;;;0.50;0.40;;;;;;;;;;10372785;28;20052;-91
2023/08/13 00:36:20;;;;;;;0.50;0.40;;;;;;;;;;10377473;28;20046;-93
2023/08/13 00:41:23;;;;;;;2.38;0.60;;;;;;;;;;10369872;28;20564;-91
2023/08/13 00:46:28;;;;;;;0.93;0.50;;;;;;;;;;10385484;28;20557;-91
2023/08/13 00:51:32;;;;;;;0.50;0.50;;;;;;;;;;10376106;28;20045;-90
2023/08/13 00:56:37;;;;;;;0.82;0.50;;;;;;;;;;10368027;28;20057;-90
2023/08/13 01:01:44;;;;;;;1.83;0.43;;;;;;;;;;10355139;28;20038;-92
2023/08/13 01:06:55;;;;;;;0.38;0.38;;;;;;;;;;10385140;28;20430;-92
2023/08/13 01:12:04;;;;;;;0.50;0.30;;;;;;;;;;10402259;28;20061;-91
2023/08/13 01:17:11;;;;;;;0.52;0.50;;;;;;;;;;10389290;28;20045;-90
2023/08/13 01:22:14;;;;;;;0.65;0.43;;;;;;;;;;10346056;28;20507;-92
2023/08/13 01:27:27;;;;;;;0.95;0.50;;;;;;;;;;10346100;28;20046;-92
2023/08/13 01:32:35;;;;;;;3.15;0.60;;;;;;;;;;10368482;28;20072;-91
2023/08/13 01:37:40;;;;;;;1.02;0.50;;;;;;;;;;10371266;28;20411;-93
2023/08/13 01:42:45;;;;;;;0.55;0.50;;;;;;;;;;10367814;28;20046;-91
2023/08/13 01:47:49;;;;;;;0.90;0.45;;;;;;;;;;10367602;28;20092;-91
2023/08/13 01:52:53;;;;;;;2.65;0.47;;;;;;;;;;10376443;28;20072;-91
2023/08/13 01:57:58;;;;;;;0.73;0.40;;;;;;;;;;10377342;28;20041;-92
2023/08/13 02:03:02;;;;;;;2.83;0.50;;;;;;;;;;10368233;28;20128;-92
2023/08/13 02:08:06;;;;;;;1.42;0.50;;;;;;;;;;10355466;28;20042;-91
2023/08/13 02:13:12;;;;;;;0.65;0.52;;;;;;;;;;10365414;28;20137;-91
2023/08/13 02:18:16;;;;;;;1.85;0.70;;;;;;;;;;10392749;28;20052;-93
2023/08/13 02:23:19;;;;;;;0.93;0.63;;;;;;;;;;10392752;28;20037;-91
2023/08/13 02:28:24;;;;;;;0.32;0.32;;;;;;;;;;10408942;28;20049;-91
2023/08/13 02:33:28;;;;;;;0.53;0.50;;;;;;;;;;10397508;28;20056;-93
2023/08/13 02:38:32;;;;;;;0.35;0.35;;;;;;;;;;10374551;28;20041;-91
2023/08/13 02:43:52;;;;;;;0.80;0.50;;;;;;;;;;10380757;28;20050;-92
2023/08/13 02:48:56;;;;;;;0.75;0.52;;;;;;;;;;10375018;28;20037;-92
2023/08/13 02:54:01;;;;;;;2.28;0.35;;;;;;;;;;10363125;28;20045;-91
2023/08/13 02:59:06;;;;;;;1.30;0.40;;;;;;;;;;10354519;28;20084;-91
2023/08/13 03:04:10;;;;;;;2.63;0.40;;;;;;;;;;10370866;28;20144;-92
2023/08/13 03:09:20;;;;;;;0.65;0.60;;;;;;;;;;10382775;28;20124;-91
2023/08/13 03:14:25;;;;;;;0.68;0.38;;;;;;;;;;10373629;28;20046;-91
2023/08/13 03:19:29;;;;;;;1.75;0.45;;;;;;;;;;10393614;28;20041;-91
2023/08/13 03:24:33;;;;;;;0.63;0.40;;;;;;;;;;10364028;28;20045;-90
2023/08/13 03:29:39;;;;;;;0.70;0.50;;;;;;;;;;10369676;28;20087;-91
2023/08/13 03:34:46;;;;;;;1.98;0.40;;;;;;;;;;10370859;28;20037;-90
2023/08/13 03:39:51;;;;;;;1.05;0.40;;;;;;;;;;10381457;28;20034;-91
2023/08/13 03:44:56;;;;;;;0.43;0.40;;;;;;;;;;10372699;28;20046;-92
2023/08/13 03:50:01;;;;;;;0.85;0.30;;;;;;;;;;10377467;28;20042;-91
2023/08/13 03:55:06;;;;;;;0.40;0.40;;;;;;;;;;10372544;28;20076;-92
2023/08/13 04:00:13;;;;;;;2.85;0.40;;;;;;;;;;10364106;28;20044;-92
2023/08/13 04:05:22;;;;;;;0.50;0.50;;;;;;;;;;10372324;28;20187;-91
2023/08/13 04:10:26;;;;;;;0.40;0.40;;;;;;;;;;10374845;28;20050;-92
2023/08/13 04:15:31;;;;;;;0.75;0.50;;;;;;;;;;10378294;28;20069;-93
2023/08/13 04:20:36;;;;;;;0.30;0.30;;;;;;;;;;10382844;28;20070;-92
2023/08/13 04:25:40;;;;;;;0.40;0.30;;;;;;;;;;10347157;28;20238;-92
2023/08/13 04:30:46;;;;;;;0.35;0.30;;;;;;;;;;10346563;28;20121;-92
2023/08/13 04:35:54;;;;;;;1.00;0.40;;;;;;;;;;10362870;28;20073;-92
2023/08/13 04:41:03;;;;;;;0.57;0.38;;;;;;;;;;10347374;28;20110;-93
2023/08/13 04:46:14;;;;;;;0.63;0.40;;;;;;;;;;10346112;28;20081;-93
2023/08/13 04:51:28;;;;;;;0.50;0.30;;;;;;;;;;10347484;28;20097;-92
2023/08/13 04:56:32;;;;;;;2.08;0.30;;;;;;;;;;10347333;28;20069;-93
2023/08/13 05:01:38;;;;;;;0.57;0.30;;;;;;;;;;10347446;28;20042;-92
2023/08/13 05:06:43;;;;;;;0.60;0.30;;;;;;;;;;10347010;28;20046;-92
2023/08/13 05:11:47;;;;;;;1.15;0.38;;;;;;;;;;10346254;28;20571;-93
2023/08/13 05:16:56;;;;;;;0.30;0.30;;;;;;;;;;10377325;28;20053;-93
2023/08/13 05:21:59;;;;;;;2.08;0.50;;;;;;;;;;10371623;28;20095;-92
2023/08/13 05:27:04;;;;;;;1.08;0.22;;;;;;;;;;10369255;28;20050;-92
2023/08/13 05:32:10;;;;;;;0.63;0.30;;;;;;;;;;10354866;28;20088;-93
2023/08/13 05:37:13;;;;;;;0.40;0.30;;;;;;;;;;10355658;28;20046;-93
2023/08/13 05:42:18;;;;;;;0.47;0.30;;;;;;;;;;10354605;28;20049;-92
2023/08/13 05:47:23;;;;;;;0.40;0.35;;;;;;;;;;10353056;28;20050;-92
2023/08/13 05:52:28;;;;;;;0.27;0.23;;;;;;;;;;10373248;28;20050;-93
2023/08/13 05:57:31;;;;;;;0.30;0.20;;;;;;;;;;10392721;28;20293;-92
2023/08/13 06:02:37;;;;;;;0.35;0.35;;;;;;;;;;10382029;28;20045;-92
2023/08/13 06:07:41;;;;;;;2.60;0.30;;;;;;;;;;10383555;28;20424;-93
2023/08/13 06:12:45;;;;;;;0.20;0.20;;;;;;;;;;10391998;28;20057;-93
2023/08/13 06:17:50;;;;;;;0.57;0.30;;;;;;;;;;10399345;28;20144;-92
2023/08/13 06:22:54;;;;;;;1.40;0.40;;;;;;;;;;10372473;28;20069;-93
2023/08/13 06:28:00;;;;;;;1.02;0.50;;;;;;;;;;10375850;28;20503;-93
2023/08/13 06:33:06;;;;;;;1.02;0.30;;;;;;;;;;10351305;28;20077;-92
2023/08/13 06:38:10;;;;;;;0.90;0.50;;;;;;;;;;10406547;28;20053;-93
2023/08/13 06:43:15;;;;;;;0.68;0.40;;;;;;;;;;10394644;28;20053;-92
2023/08/13 06:48:23;;;;;;;0.77;0.47;;;;;;;;;;10362167;28;20091;-91
2023/08/13 06:53:27;;;;;;;0.40;0.20;;;;;;;;;;10391424;28;20045;-91
2023/08/13 06:58:30;;;;;;;0.30;0.22;;;;;;;;;;10377880;28;20053;-92
2023/08/13 07:03:35;;;;;;;0.20;0.20;;;;;;;;;;10388821;28;20050;-89
2023/08/13 07:08:41;;;;;;;0.40;0.30;;;;;;;;;;10383881;28;20404;-90
2023/08/13 07:13:48;;;;;;;0.45;0.40;;;;;;;;;;10366731;28;20049;-89
2023/08/13 07:18:55;;;;;;;0.30;0.30;;;;;;;;;;10385308;28;20547;-88
2023/08/13 07:23:59;;;;;;;2.05;0.30;;;;;;;;;;10359641;28;20041;-91
2023/08/13 07:29:06;;;;;;;0.75;0.32;;;;;;;;;;10374833;28;20384;-89
2023/08/13 07:34:11;;;;;;;1.55;0.77;;;;;;;;;;10354327;28;20042;-91
2023/08/13 07:39:16;;;;;;;0.53;0.50;;;;;;;;;;10366178;28;20046;-91
2023/08/13 07:44:20;;;;;;;0.40;0.40;;;;;;;;;;10367725;28;20041;-88
2023/08/13 07:49:25;;;;;;;0.80;0.70;;;;;;;;;;10368987;28;20104;-89
2023/08/13 07:54:29;;;;;;;;;;;;;;;;;;10371792;28;20066;-91
2023/08/13 07:59:33;;;;;;;1.55;0.90;;;;;;;;;;10379929;28;19936;-89
2023/08/13 08:04:37;;;;;;;0.60;0.60;;;;;;;;;;10375006;28;20129;-91
2023/08/13 08:09:41;;;;;;;1.52;0.90;;;;;;;;;;10367159;28;20277;-88
2023/08/13 08:14:44;;;;;;;0.75;0.60;;;;;;;;;;10386819;28;20041;-91
2023/08/13 08:19:50;;;;;;;1.02;0.63;;;;;;;;;;10375041;28;20195;-91
2023/08/13 08:25:04;;;;;;;1.50;0.93;;;;;;;;;;10374592;28;20100;-89
2023/08/13 08:30:08;;;;;;;0.68;0.68;;;;;;;;;;10351702;28;20722;-89
2023/08/13 08:35:14;;;;;;;0.63;0.50;;;;;;;;;;10346133;28;20638;-88
2023/08/13 08:40:17;;;;;;;0.47;0.43;;;;;;;;;;10347034;28;20045;-89
2023/08/13 08:45:22;;;;;;;0.70;0.40;;;;;;;;;;10363443;28;20137;-87
2023/08/13 08:50:27;;;;;;;1.23;0.60;;;;;;;;;;10365033;28;20042;-89
2023/08/13 08:55:31;;;;;;;0.80;0.70;;;;;;;;;;10346150;28;20112;-91
2023/08/13 09:00:34;;;;;;;0.55;0.40;;;;;;;;;;10366234;28;20042;-88
2023/08/13 09:05:39;;;;;;;1.00;0.65;;;;;;;;;;10367725;28;20033;-88
2023/08/13 09:10:43;;;;;;;0.77;0.53;;;;;;;;;;10380812;28;20041;-89
2023/08/13 09:15:49;;;;;;;1.58;0.60;;;;;;;;;;10374599;28;20300;-88
2023/08/13 09:20:56;;;;;;;1.90;0.75;;;;;;;;;;10381128;28;20058;-88
2023/08/13 09:26:00;;;;;;;1.15;0.70;;;;;;;;;;10367996;28;20439;-88
2023/08/13 09:31:03;;;;;;;1.58;0.75;;;;;;;;;;10382003;28;20045;-89
2023/08/13 09:36:08;;;;;;;0.70;0.57;;;;;;;;;;10362927;28;20049;-90
2023/08/13 09:41:13;;;;;;;2.13;1.10;;;;;;;;;;10391825;28;20450;-88
2023/08/13 09:46:20;;;;;;;1.63;0.80;;;;;;;;;;10359381;28;20049;-88
2023/08/13 09:51:30;;;;;;;2.20;0.82;;;;;;;;;;10383955;28;20046;-89
2023/08/13 09:56:43;;;;;;;1.98;1.23;;;;;;;;;;10367081;28;20045;-89
2023/08/13 10:01:47;;;;;;;3.60;0.82;;;;;;;;;;10385212;28;20496;-90
2023/08/13 10:06:55;;;;;;;1.52;0.85;;;;;;;;;;10374720;28;20718;-88
2023/08/13 10:11:58;;;;;;;2.55;1.20;;;;;;;;;;10379984;28;20265;-88
2023/08/13 10:17:04;;;;;;;1.88;1.30;;;;;;;;;;10363215;28;20057;-88
2023/08/13 10:22:12;;;;;;;3.05;1.00;;;;;;;;;;10387506;28;20124;-90
2023/08/13 10:27:21;;;;;;;3.65;1.60;;;;;;;;;;10355137;28;20046;-88
2023/08/13 10:32:25;;;;;;;2.50;1.10;;;;;;;;;;10384975;28;20123;-90
2023/08/13 10:37:32;;;;;;;3.13;1.00;;;;;;;;;;10379801;28;20042;-88
2023/08/13 10:42:49;;;;;;;3.70;1.27;;;;;;;;;;10389971;28;20042;-88
2023/08/13 10:47:55;;;;;;;2.25;0.90;;;;;;;;;;10386453;28;20175;-88
2023/08/13 10:53:10;;;;;;;2.65;1.17;;;;;;;;;;10365243;28;20068;-88
2023/08/13 10:58:24;;;;;;;2.15;1.00;;;;;;;;;;10374708;28;20061;-91
2023/08/13 11:03:31;;;;;;;2.65;1.42;;;;;;;;;;10379421;28;20524;-88
2023/08/13 11:08:40;;;;;;;3.85;1.13;;;;;;;;;;10364773;28;20037;-88
2023/08/13 11:13:49;;;;;;;2.05;1.10;;;;;;;;;;10372964;28;20045;-88
2023/08/13 11:18:52;;;;;;;3.88;1.13;;;;;;;;;;10365233;28;20064;-88
2023/08/13 11:23:57;;;;;;;1.27;0.88;;;;;;;;;;10370674;28;20037;-88
2023/08/13 11:29:00;;;;;;;4.10;1.33;;;;;;;;;;10359029;28;20048;-88
2023/08/13 11:34:04;;;;;;;3.38;1.05;;;;;;;;;;10361525;28;20033;-89
2023/08/13 11:39:09;;;;;;;2.75;1.00;;;;;;;;;;10373362;28;20337;-89
2023/08/13 11:44:13;;;;;;;1.40;0.80;;;;;;;;;;10364588;28;20046;-89
2023/08/13 11:49:17;;;;;;;2.35;1.05;;;;;;;;;;10384240;28;20065;-90
2023/08/13 11:54:22;;;;;;;1.42;0.88;;;;;;;;;;10365641;28;20069;-88
2023/08/13 11:59:29;;;;;;;1.33;0.80;;;;;;;;;;10370408;28;20069;-88
2023/08/13 12:04:33;;;;;;;2.70;1.05;;;;;;;;;;10358745;28;20061;-88
2023/08/13 12:09:40;;;;;;;1.77;0.90;;;;;;;;;;10376568;28;20046;-88
2023/08/13 12:14:45;;;;;;;1.57;0.80;;;;;;;;;;10375953;28;20230;-88
2023/08/13 12:19:48;;;;;;;1.67;0.80;;;;;;;;;;10366747;28;20038;-89
2023/08/13 12:24:53;;;;;;;1.25;0.70;;;;;;;;;;10353200;28;20065;-87
2023/08/13 12:29:57;;;;;;;2.30;1.37;;;;;;;;;;10353123;28;20069;-88
2023/08/13 12:35:00;;;;;;;1.23;0.80;;;;;;;;;;10362539;28;20145;-88
2023/08/13 12:40:09;;;;;;;2.45;0.90;;;;;;;;;;10372221;28;20412;-88
2023/08/13 12:45:12;;;;;;;2.35;1.05;;;;;;;;;;10400187;28;20041;-88
2023/08/13 12:50:15;;;;;;;2.03;0.70;;;;;;;;;;10354948;28;20124;-88
2023/08/13 12:55:20;;;;;;;2.35;0.80;;;;;;;;;;10366320;28;20396;-88
2023/08/13 13:00:24;;;;;;;2.00;0.70;;;;;;;;;;10361439;28;20608;-88
2023/08/13 13:05:27;;;;;;;1.50;1.13;;;;;;;;;;10361978;28;20050;-88
2023/08/13 13:10:32;;;;;;;1.25;0.60;;;;;;;;;;10385387;28;20307;-88
2023/08/13 13:15:36;;;;;;;2.42;1.20;;;;;;;;;;10359946;28;20046;-88
2023/08/13 13:20:39;;;;;;;2.55;0.70;;;;;;;;;;10384233;28;20045;-88
2023/08/13 13:25:44;;;;;;;3.75;0.80;;;;;;;;;;10370092;28;20038;-89
2023/08/13 13:30:48;;;;;;;1.23;0.60;;;;;;;;;;10378273;28;20503;-88
2023/08/13 13:35:51;;;;;;;0.65;0.47;;;;;;;;;;10375424;28;20060;-87
2023/08/13 13:40:56;;;;;;;1.42;0.80;;;;;;;;;;10360347;28;20103;-88
2023/08/13 13:45:59;;;;;;;0.70;0.50;;;;;;;;;;10378134;28;20042;-88
2023/08/13 13:51:03;;;;;;;1.60;0.75;;;;;;;;;;10372123;28;20338;-90
2023/08/13 13:56:07;;;;;;;1.63;0.70;;;;;;;;;;10392307;28;20574;-88
2023/08/13 14:01:11;;;;;;;0.47;0.43;;;;;;;;;;10351870;28;20210;-88
2023/08/13 14:06:14;;;;;;;0.73;0.50;;;;;;;;;;10375964;28;20041;-88
2023/08/13 14:11:19;;;;;;;0.40;0.30;;;;;;;;;;10392501;28;20085;-88
2023/08/13 14:16:22;;;;;;;0.88;0.40;;;;;;;;;;10382274;28;20103;-88
2023/08/13 14:21:26;;;;;;;1.08;0.63;;;;;;;;;;10390007;28;20053;-88
2023/08/13 14:26:31;;;;;;;1.67;0.93;;;;;;;;;;10380753;28;20042;-88
2023/08/13 14:31:34;;;;;;;2.88;0.63;;;;;;;;;;10363936;28;20092;-86
2023/08/13 14:36:38;;;;;;;1.25;0.50;;;;;;;;;;10364570;28;20045;-86
2023/08/13 14:41:42;;;;;;;0.73;0.40;;;;;;;;;;10396358;28;20045;-86
2023/08/13 14:46:46;;;;;;;0.57;0.43;;;;;;;;;;10381212;28;20489;-86
2023/08/13 14:51:49;;;;;;;0.73;0.40;;;;;;;;;;10382994;28;20050;-86
2023/08/13 14:56:54;;;;;;;0.88;0.50;;;;;;;;;;10390854;28;20070;-87
2023/08/13 15:01:58;;;;;;;0.98;0.60;;;;;;;;;;10357594;28;20037;-87
2023/08/13 15:07:02;;;;;;;1.42;0.50;;;;;;;;;;10374101;28;20046;-87
2023/08/13 15:12:08;;;;;;;0.77;0.50;;;;;;;;;;10375853;28;20070;-91
2023/08/13 15:17:11;;;;;;;1.30;0.52;;;;;;;;;;10382852;28;20129;-86
2023/08/13 15:22:14;;;;;;;1.30;0.63;;;;;;;;;;10362407;28;20753;-86
2023/08/13 15:27:19;;;;;;;0.55;0.40;;;;;;;;;;10377011;28;20056;-85
2023/08/13 15:32:24;;;;;;;1.85;1.00;;;;;;;;;;10355681;28;20183;-85
2023/08/13 15:37:27;;;;;;;1.13;0.60;;;;;;;;;;10374708;28;20120;-85
2023/08/13 15:42:32;;;;;;;0.82;0.50;;;;;;;;;;10360776;28;20088;-86
2023/08/13 15:47:36;;;;;;;1.42;0.70;;;;;;;;;;10380253;28;20049;-85
2023/08/13 15:52:39;;;;;;;2.70;0.90;;;;;;;;;;10343288;28;20689;-85
2023/08/13 15:57:44;;;;;;;1.20;0.80;;;;;;;;;;10352704;28;20157;-86
2023/08/13 16:02:47;;;;;;;1.92;0.75;;;;;;;;;;10347418;28;20056;-86
2023/08/13 16:07:58;;;;;;;3.22;0.80;;;;;;;;;;10378734;28;20642;-85
2023/08/13 16:13:29;;;;;;;2.38;1.20;;;;;;;;;;10348132;28;20045;-85
2023/08/13 16:18:32;;;;;;;0.70;0.50;;;;;;;;;;10360202;28;20092;-85
2023/08/13 16:23:36;;;;;;;0.80;0.70;;;;;;;;;;10359174;28;20698;-85
2023/08/13 16:28:40;;;;;;;2.15;0.82;;;;;;;;;;10353523;28;20092;-85
2023/08/13 16:33:44;;;;;;;1.97;0.83;;;;;;;;;;10370442;28;20061;-84
2023/08/13 16:38:47;;;;;;;0.77;0.50;;;;;;;;;;10353199;28;20096;-87
2023/08/13 16:43:52;;;;;;;1.00;0.40;;;;;;;;;;10347650;28;20503;-86
2023/08/13 16:48:55;;;;;;;2.47;0.57;;;;;;;;;;10354714;28;20042;-86
2023/08/13 16:53:59;;;;;;;1.05;0.63;;;;;;;;;;10360127;28;20285;-86
2023/08/13 16:59:04;;;;;;;0.50;0.40;;;;;;;;;;10367235;28;20061;-86
2023/08/13 17:04:08;;;;;;;1.13;0.52;;;;;;;;;;10371500;28;20034;-87
2023/08/13 17:09:12;;;;;;;0.73;0.40;;;;;;;;;;10346794;28;20050;-87
2023/08/13 17:14:17;;;;;;;1.23;0.30;;;;;;;;;;10383199;28;20523;-87
2023/08/13 17:19:22;;;;;;;0.60;0.40;;;;;;;;;;10366785;28;20069;-86
2023/08/13 17:24:26;;;;;;;0.55;0.47;;;;;;;;;;10381162;28;20046;-87
2023/08/13 17:29:30;;;;;;;1.40;0.40;;;;;;;;;;10395205;28;20076;-87
2023/08/13 17:34:34;;;;;;;1.97;0.60;;;;;;;;;;10390851;28;20089;-87
2023/08/13 17:39:37;;;;;;;0.65;0.45;;;;;;;;;;10388271;28;20053;-88
2023/08/13 17:44:43;;;;;;;1.42;0.60;;;;;;;;;;10373076;28;20042;-88
2023/08/13 17:49:46;;;;;;;1.05;0.43;;;;;;;;;;10385217;28;20049;-87
2023/08/13 17:54:50;;;;;;;0.82;0.43;;;;;;;;;;10374232;28;20041;-90
2023/08/13 17:59:54;;;;;;;3.20;0.63;;;;;;;;;;10364253;28;20127;-88
2023/08/13 18:05:27;;;;;;;1.30;0.55;;;;;;;;;;10381696;28;20049;-87
2023/08/13 18:10:31;;;;;;;1.10;0.57;;;;;;;;;;10359916;28;20100;-84
2023/08/13 18:15:35;;;;;;;1.48;0.52;;;;;;;;;;10373284;28;20121;-86
2023/08/13 18:20:39;;;;;;;0.57;0.43;;;;;;;;;;10381768;28;20054;-86
2023/08/13 18:25:43;;;;;;;2.28;0.60;;;;;;;;;;10384782;28;20296;-85
2023/08/13 18:30:48;;;;;;;0.50;0.38;;;;;;;;;;10376245;28;20418;-85
2023/08/13 18:35:53;;;;;;;0.90;0.52;;;;;;;;;;10375394;28;20111;-86
2023/08/13 18:40:56;;;;;;;1.07;0.60;;;;;;;;;;10362796;28;20053;-85
2023/08/13 18:46:01;;;;;;;2.13;0.70;;;;;;;;;;10368373;28;20038;-86
2023/08/13 18:51:05;;;;;;;1.80;0.67;;;;;;;;;;10359582;28;20046;-85
2023/08/13 18:56:09;;;;;;;2.65;0.60;;;;;;;;;;10371914;28;20056;-85
2023/08/13 19:01:14;;;;;;;1.25;0.60;;;;;;;;;;10370497;28;20415;-85
2023/08/13 19:06:18;;;;;;;3.60;0.97;;;;;;;;;;10359014;28;20547;-85
2023/08/13 19:11:21;;;;;;;2.75;0.60;;;;;;;;;;10354998;28;20510;-85
2023/08/13 19:16:26;;;;;;;4.57;0.63;;;;;;;;;;10360795;28;20240;-85
2023/08/13 19:21:31;;;;;;;1.70;0.80;;;;;;;;;;10360053;28;20096;-86
2023/08/13 19:26:35;;;;;;;2.45;0.77;;;;;;;;;;10363184;28;20045;-86
2023/08/13 19:31:41;;;;;;;0.93;0.77;;;;;;;;;;10362140;28;20062;-86
2023/08/13 19:36:44;;;;;;;0.85;0.55;;;;;;;;;;10393678;28;20045;-86
2023/08/13 19:41:47;;;;;;;1.23;0.70;;;;;;;;;;10378575;28;20041;-86
2023/08/13 19:46:57;;;;;;;1.45;0.60;;;;;;;;;;10386147;28;20037;-86
2023/08/13 19:52:02;;;;;;;1.17;0.50;;;;;;;;;;10365842;28;20583;-85
2023/08/13 19:57:09;;;;;;;1.48;0.70;;;;;;;;;;10363486;28;20336;-88
2023/08/13 20:02:16;;;;;;;1.70;0.55;;;;;;;;;;10376255;28;20045;-88
2023/08/13 20:07:19;;;;;;;2.00;0.63;;;;;;;;;;10357188;28;20045;-87
2023/08/13 20:12:23;;;;;;;1.60;0.90;;;;;;;;;;10365357;28;20057;-88
2023/08/13 20:17:28;;;;;;;1.25;0.57;;;;;;;;;;10354076;28;20530;-87
2023/08/13 20:22:31;;;;;;;1.50;0.80;;;;;;;;;;10384183;28;20084;-87
2023/08/13 20:27:36;;;;;;;1.38;0.60;;;;;;;;;;10362044;28;20041;-87
2023/08/13 20:32:43;;;;;;;0.82;0.70;;;;;;;;;;10365763;28;20053;-87
2023/08/13 20:37:47;;;;;;;1.20;0.73;;;;;;;;;;10372936;28;20045;-89
2023/08/13 20:42:50;;;;;;;0.88;0.60;;;;;;;;;;10354242;28;20140;-89
2023/08/13 20:47:55;;;;;;;1.05;0.60;;;;;;;;;;10371498;28;20037;-88
2023/08/13 20:52:58;;;;;;;1.00;0.60;;;;;;;;;;10366248;28;20072;-89
2023/08/13 20:58:02;;;;;;;1.90;0.68;;;;;;;;;;10362605;28;20049;-88
2023/08/13 21:03:07;;;;;;;2.35;0.55;;;;;;;;;;10359965;28;20741;-88
2023/08/13 21:08:11;;;;;;;1.07;0.53;;;;;;;;;;10347740;28;20137;-88
2023/08/13 21:13:14;;;;;;;1.85;0.55;;;;;;;;;;10362907;28;20062;-89
2023/08/13 21:18:19;;;;;;;1.67;0.90;;;;;;;;;;10356929;28;20514;-89
2023/08/13 21:23:22;;;;;;;0.80;0.60;;;;;;;;;;10386919;28;20046;-88
2023/08/13 21:28:26;;;;;;;0.88;0.60;;;;;;;;;;10392842;28;20042;-89
2023/08/13 21:33:31;;;;;;;3.45;0.70;;;;;;;;;;10357114;28;20049;-89
2023/08/13 21:39:09;;;;;;;3.35;0.70;;;;;;;;;;10354247;28;20586;-89
2023/08/13 21:44:23;;;;;;;1.92;0.65;;;;;;;;;;10375042;28;20111;-89
2023/08/13 21:49:27;;;;;;;1.05;0.50;;;;;;;;;;10359979;28;20049;-91
2023/08/13 21:54:31;;;;;;;3.95;0.73;;;;;;;;;;10362411;28;20053;-89
2023/08/13 21:59:34;;;;;;;0.60;0.43;;;;;;;;;;10382348;28;20056;-88
2023/08/13 22:04:40;;;;;;;2.22;0.70;;;;;;;;;;10370195;28;20100;-88
2023/08/13 22:09:43;;;;;;;3.53;1.00;;;;;;;;;;10375590;28;20072;-88
2023/08/13 22:14:47;;;;;;;4.95;0.77;;;;;;;;;;10377394;28;20293;-88
2023/08/13 22:19:54;;;;;;;1.33;0.55;;;;;;;;;;10373052;28;20052;-89
2023/08/13 22:24:57;;;;;;;2.95;0.70;;;;;;;;;;10368851;28;20466;-89
2023/08/13 22:30:01;;;;;;;1.02;0.70;;;;;;;;;;10383928;28;20046;-90
2023/08/13 22:35:07;;;;;;;4.30;0.90;;;;;;;;;;10374356;28;20559;-89
2023/08/13 22:40:12;;;;;;;1.27;1.00;;;;;;;;;;10354396;28;20053;-89
2023/08/13 22:45:15;;;;;;;1.13;0.60;;;;;;;;;;10382515;28;20056;-89
2023/08/13 22:50:20;;;;;;;3.30;0.70;;;;;;;;;;10368393;28;20049;-91
2023/08/13 22:55:24;;;;;;;1.40;0.70;;;;;;;;;;10369829;28;20045;-89
2023/08/13 23:00:28;;;;;;;0.80;0.55;;;;;;;;;;10392143;28;20046;-88
2023/08/13 23:05:33;;;;;;;1.55;0.50;;;;;;;;;;10363045;28;20046;-88
2023/08/13 23:10:36;;;;;;;1.60;0.82;;;;;;;;;;10388038;28;20068;-89
2023/08/13 23:15:40;;;;;;;0.75;0.55;;;;;;;;;;10374968;28;20507;-89
2023/08/13 23:20:45;;;;;;;2.25;0.80;;;;;;;;;;10379161;28;20038;-89
2023/08/13 23:25:48;;;;;;;0.88;0.50;;;;;;;;;;10372221;28;20041;-90
2023/08/13 23:30:52;;;;;;;1.27;0.70;;;;;;;;;;10386618;28;20173;-89
2023/08/13 23:35:57;;;;;;;2.30;0.80;;;;;;;;;;10363063;28;20034;-89
2023/08/13 23:41:00;;;;;;;1.13;0.63;;;;;;;;;;10357478;28;20095;-88
2023/08/13 23:46:04;;;;;;;1.77;0.68;;;;;;;;;;10374811;28;20116;-89
2023/08/13 23:51:09;;;;;;;2.28;0.90;;;;;;;;;;10374246;28;20042;-89
2023/08/13 23:56:12;;;;;;;4.35;0.55;;;;;;;;;;10386029;28;20504;-89
